createdAt,value
2022-09-17T00:03:25.063Z,13.32
2022-09-17T00:08:29.285Z,12.48
2022-09-17T00:13:33.181Z,13.07
2022-09-17T00:18:41.782Z,12.82
2022-09-17T00:23:45.653Z,12.41
2022-09-17T00:28:51.561Z,13.58
2022-09-17T00:33:56.499Z,12.99
2022-09-17T00:39:01.651Z,12.48
2022-09-17T00:44:53.250Z,12.07
2022-09-17T00:50:02.226Z,11.74
2022-09-17T00:55:14.099Z,13.04
2022-09-17T01:00:18.971Z,11.41
2022-09-17T01:05:37.741Z,11.89
2022-09-17T01:11:27.843Z,12.34
2022-09-17T01:16:42.008Z,11.53
2022-09-17T01:22:01.551Z,11.80
2022-09-17T01:27:33.461Z,12.06
2022-09-17T01:32:43.847Z,13.07
2022-09-17T01:37:56.132Z,13.34
2022-09-17T01:43:08.540Z,13.13
2022-09-17T01:48:18.169Z,13.20
2022-09-17T01:53:27.847Z,12.82
2022-09-17T01:58:35.613Z,12.81
2022-09-17T02:03:45.206Z,11.26
2022-09-17T02:08:53.064Z,12.78
2022-09-17T02:14:01.064Z,12.68
2022-09-17T02:19:12.223Z,12.54
2022-09-17T02:24:20.872Z,11.50
2022-09-17T02:29:30.862Z,12.01
2022-09-17T02:34:36.951Z,11.53
2022-09-17T02:39:41.928Z,11.60
2022-09-17T02:44:56.043Z,11.47
2022-09-17T02:50:20.309Z,11.14
2022-09-17T02:55:32.076Z,10.84
2022-09-17T03:00:36.218Z,11.42
2022-09-17T03:05:44.316Z,10.51
2022-09-17T03:10:49.631Z,10.35
2022-09-17T03:15:53.696Z,10.25
2022-09-17T03:20:58.904Z,9.82
2022-09-17T03:26:02.886Z,10.70
2022-09-17T03:31:07.023Z,10.43
2022-09-17T03:36:12.434Z,11.30
2022-09-17T03:41:16.268Z,11.20
2022-09-17T03:46:21.025Z,11.41
2022-09-17T03:51:26.518Z,11.73
2022-09-17T03:56:30.460Z,11.69
2022-09-17T04:01:34.561Z,11.04
2022-09-17T04:06:39.966Z,12.01
2022-09-17T04:11:44.024Z,12.17
2022-09-17T04:16:47.901Z,12.04
2022-09-17T04:21:53.374Z,11.05
2022-09-17T04:26:57.316Z,11.77
2022-09-17T04:32:01.291Z,10.87
2022-09-17T04:37:06.827Z,11.85
2022-09-17T04:42:10.729Z,11.98
2022-09-17T04:47:14.821Z,11.94
2022-09-17T04:52:20.049Z,11.26
2022-09-17T04:57:25.675Z,11.83
2022-09-17T05:02:29.761Z,12.26
2022-09-17T05:07:35.117Z,12.80
2022-09-17T05:12:38.896Z,12.81
2022-09-17T05:17:42.705Z,12.87
2022-09-17T05:22:49.123Z,12.84
2022-09-17T05:27:54.230Z,12.88
2022-09-17T05:33:02.282Z,13.16
2022-09-17T05:38:08.737Z,13.21
2022-09-17T05:43:13.091Z,13.20
2022-09-17T05:48:17.141Z,13.42
2022-09-17T05:53:22.444Z,14.17
2022-09-17T05:58:28.737Z,14.30
2022-09-17T06:03:32.572Z,14.66
2022-09-17T06:08:37.948Z,14.67
2022-09-17T06:13:43.628Z,14.74
2022-09-17T06:18:47.809Z,15.80
2022-09-17T06:23:53.808Z,16.44
2022-09-17T06:28:59.778Z,16.48
2022-09-17T06:34:05.718Z,16.91
2022-09-17T06:39:11.840Z,15.85
2022-09-17T06:44:16.121Z,15.55
2022-09-17T06:49:19.954Z,14.76
2022-09-17T06:54:25.267Z,15.03
2022-09-17T06:59:29.458Z,14.92
2022-09-17T07:04:33.327Z,14.96
2022-09-17T07:09:38.870Z,14.67
2022-09-17T07:14:42.775Z,14.56
2022-09-17T07:19:46.900Z,13.96
2022-09-17T07:24:52.068Z,13.92
2022-09-17T07:29:55.886Z,14.66
2022-09-17T07:34:59.677Z,14.56
2022-09-17T07:40:08.051Z,14.10
2022-09-17T07:45:12.433Z,14.47
2022-09-17T07:50:16.849Z,13.85
2022-09-17T07:55:23.943Z,14.06
2022-09-17T08:00:27.802Z,14.18
2022-09-17T08:05:33.620Z,15.55
2022-09-17T08:10:39.709Z,15.02
2022-09-17T08:15:43.604Z,14.76
2022-09-17T08:20:47.766Z,15.18
2022-09-17T08:25:55.485Z,15.68
2022-09-17T08:31:02.727Z,16.49
2022-09-17T08:36:09.232Z,14.85
2022-09-17T08:41:24.315Z,15.53
2022-09-17T08:46:29.884Z,15.55
2022-09-17T08:51:43.999Z,15.77
2022-09-17T08:57:02.632Z,16.79
2022-09-17T09:02:22.465Z,17.36
2022-09-17T09:07:29.749Z,17.16
2022-09-17T09:12:38.139Z,17.94
2022-09-17T09:17:45.142Z,17.47
2022-09-17T09:22:51.252Z,17.64
2022-09-17T09:28:08.116Z,17.87
2022-09-17T09:33:17.894Z,17.40
2022-09-17T09:38:31.562Z,16.93
2022-09-17T09:44:02.875Z,17.75
2022-09-17T09:49:16.691Z,18.51
2022-09-17T09:54:38.990Z,18.17
2022-09-17T09:59:45.568Z,17.85
2022-09-17T10:04:53.372Z,17.59
2022-09-17T10:10:10.432Z,17.32
2022-09-17T10:15:26.409Z,18.49
2022-09-17T10:20:30.569Z,18.55
2022-09-17T10:25:35.992Z,17.77
2022-09-17T10:30:57.147Z,17.08
2022-09-17T10:36:04.509Z,18.12
2022-09-17T10:41:14.475Z,18.20
2022-09-17T10:46:27.963Z,19.41
2022-09-17T10:51:32.128Z,18.70
2022-09-17T10:56:37.985Z,18.26
2022-09-17T11:01:56.988Z,17.18
2022-09-17T11:07:33.474Z,17.08
2022-09-17T11:12:46.912Z,17.28
2022-09-17T11:18:14.402Z,17.52
2022-09-17T11:23:32.761Z,17.41
2022-09-17T11:28:53.941Z,17.03
2022-09-17T11:34:16.933Z,16.87
2022-09-17T11:39:26.966Z,17.11
2022-09-17T11:44:34.200Z,17.11
2022-09-17T11:49:46.600Z,15.95
2022-09-17T11:54:56.721Z,15.73
2022-09-17T12:00:06.076Z,16.45
2022-09-17T12:05:22.099Z,16.73
2022-09-17T12:10:47.807Z,17.41
2022-09-17T12:15:57.513Z,16.62
2022-09-17T12:21:06.277Z,16.80
2022-09-17T12:26:22.051Z,15.99
2022-09-17T12:31:33.917Z,15.91
2022-09-17T12:36:50.314Z,15.73
2022-09-17T12:42:06.428Z,16.56
2022-09-17T12:47:36.283Z,16.52
2022-09-17T12:52:52.750Z,16.00
2022-09-17T12:58:04.501Z,16.26
2022-09-17T13:03:19.621Z,16.47
2022-09-17T13:08:57.436Z,16.69
2022-09-17T13:14:11.107Z,17.07
2022-09-17T13:19:27.076Z,16.45
2022-09-17T13:24:33.305Z,15.98
2022-09-17T13:29:59.837Z,16.33
2022-09-17T13:35:51.119Z,16.63
2022-09-17T13:41:20.323Z,16.35
2022-09-17T13:46:26.006Z,17.18
2022-09-17T13:51:48.454Z,15.96
2022-09-17T13:57:08.622Z,15.91
2022-09-17T14:02:37.515Z,17.11
2022-09-17T14:07:50.052Z,16.62
2022-09-17T14:12:56.999Z,16.73
2022-09-17T14:18:02.777Z,17.06
2022-09-17T14:23:13.488Z,15.95
2022-09-17T14:28:30.016Z,15.31
2022-09-17T14:33:35.629Z,15.43
2022-09-17T14:38:45.565Z,15.51
2022-09-17T14:43:53.618Z,15.74
2022-09-17T14:49:15.306Z,15.55
2022-09-17T14:54:27.279Z,16.19
2022-09-17T14:59:50.655Z,16.56
2022-09-17T15:04:54.684Z,16.39
2022-09-17T15:10:10.561Z,15.35
2022-09-17T15:15:22.207Z,15.24
2022-09-17T15:20:31.481Z,16.74
2022-09-17T15:25:38.374Z,14.90
2022-09-17T15:30:42.479Z,15.41
2022-09-17T15:36:00.353Z,15.24
2022-09-17T15:41:25.347Z,15.07
2022-09-17T15:46:31.268Z,14.99
2022-09-17T15:51:37.278Z,14.62
2022-09-17T15:56:43.452Z,14.56
2022-09-17T16:01:57.525Z,14.22
2022-09-17T16:07:24.517Z,13.83
2022-09-17T16:12:30.174Z,13.73
2022-09-17T16:17:43.330Z,14.33
2022-09-17T16:22:48.381Z,14.63
2022-09-17T16:27:57.278Z,14.38
2022-09-17T16:33:03.898Z,13.52
2022-09-17T16:38:09.632Z,13.42
2022-09-17T16:43:14.685Z,13.07
2022-09-17T16:48:18.646Z,13.21
2022-09-17T16:53:22.756Z,12.87
2022-09-17T16:58:28.195Z,13.05
2022-09-17T17:03:32.396Z,13.38
2022-09-17T17:08:36.190Z,12.57
2022-09-17T17:13:43.101Z,12.96
2022-09-17T17:18:46.928Z,13.45
2022-09-17T17:23:50.861Z,13.10
2022-09-17T17:28:56.093Z,12.61
2022-09-17T17:34:00.088Z,12.78
2022-09-17T17:39:04.818Z,13.30
2022-09-17T17:44:12.610Z,13.81
2022-09-17T17:49:17.155Z,12.37
2022-09-17T17:54:22.133Z,12.41
2022-09-17T17:59:27.327Z,13.16
2022-09-17T18:04:31.202Z,12.86
2022-09-17T18:09:35.562Z,12.38
2022-09-17T18:14:40.718Z,12.22
2022-09-17T18:19:44.723Z,12.57
2022-09-17T18:24:48.725Z,12.60
2022-09-17T18:29:54.077Z,11.90
2022-09-17T18:34:58.185Z,12.13
2022-09-17T18:40:02.532Z,12.39
2022-09-17T18:45:09.421Z,12.38
2022-09-17T18:50:14.530Z,12.18
2022-09-17T18:55:18.366Z,13.16
2022-09-17T19:00:30.982Z,12.97
2022-09-17T19:05:34.986Z,13.19
2022-09-17T19:10:38.738Z,13.55
2022-09-17T19:15:44.249Z,12.96
2022-09-17T19:20:48.059Z,13.23
2022-09-17T19:25:51.885Z,13.22
2022-09-17T19:30:57.203Z,12.40
2022-09-17T19:36:02.007Z,11.88
2022-09-17T19:41:09.117Z,11.75
2022-09-17T19:46:21.702Z,11.92
2022-09-17T19:51:28.399Z,12.65
2022-09-17T19:56:32.463Z,12.13
2022-09-17T20:01:37.768Z,11.96
2022-09-17T20:06:41.931Z,11.69
2022-09-17T20:11:45.968Z,12.16
2022-09-17T20:16:51.231Z,12.27
2022-09-17T20:21:55.164Z,11.89
2022-09-17T20:26:59.224Z,11.75
2022-09-17T20:32:04.968Z,12.97
2022-09-17T20:37:13.519Z,12.38
2022-09-17T20:42:18.247Z,12.95
2022-09-17T20:47:23.666Z,12.49
2022-09-17T20:52:27.613Z,12.83
2022-09-17T20:57:32.073Z,12.79
2022-09-17T21:02:38.206Z,12.50
2022-09-17T21:07:42.039Z,13.61
2022-09-17T21:12:46.088Z,13.23
2022-09-17T21:17:51.955Z,11.84
2022-09-17T21:22:56.389Z,12.11
2022-09-17T21:28:00.901Z,12.23
2022-09-17T21:33:06.267Z,12.74
2022-09-17T21:38:10.132Z,12.02
2022-09-17T21:43:14.049Z,11.28
2022-09-17T21:48:19.295Z,11.82
2022-09-17T21:53:23.294Z,12.65
2022-09-17T21:58:27.185Z,13.06
2022-09-17T22:03:32.672Z,13.15
2022-09-17T22:08:36.864Z,12.38
2022-09-17T22:13:41.639Z,12.19
2022-09-17T22:18:49.244Z,12.55
2022-09-17T22:23:55.633Z,13.45
2022-09-17T22:29:03.596Z,13.39
2022-09-17T22:34:11.245Z,12.41
2022-09-17T22:39:15.675Z,12.34
2022-09-17T22:44:21.146Z,12.45
2022-09-17T22:49:26.667Z,11.41
2022-09-17T22:54:31.037Z,12.30
2022-09-17T22:59:35.149Z,11.75
2022-09-17T23:04:40.323Z,10.96
2022-09-17T23:09:44.447Z,10.21
2022-09-17T23:14:48.718Z,10.96
2022-09-17T23:19:54.136Z,10.95
2022-09-17T23:24:57.990Z,10.69
2022-09-17T23:30:01.790Z,11.44
2022-09-17T23:35:08.276Z,11.56
2022-09-17T23:40:13.003Z,10.51
2022-09-17T23:45:16.979Z,11.17
2022-09-17T23:50:22.671Z,11.75
2022-09-17T23:55:26.548Z,11.29
